sensor_id;sensor_type;location;lat;lon;timestamp;P1;durP1;ratioP1;P2;durP2;ratioP2
13218;SDS011;6674;49.152;11.918;2023-09-19T00:00:55;4.03;;;2.07;;
13218;SDS011;6674;49.152;11.918;2023-09-19T00:03:22;2.53;;;2.20;;
13218;SDS011;6674;49.152;11.918;2023-09-19T00:05:51;4.20;;;1.77;;
13218;SDS011;6674;49.152;11.918;2023-09-19T00:08:17;2.90;;;2.17;;
13218;SDS011;6674;49.152;11.918;2023-09-19T00:10:47;2.30;;;2.10;;
13218;SDS011;6674;49.152;11.918;2023-09-19T00:13:13;2.07;;;1.83;;
13218;SDS011;6674;49.152;11.918;2023-09-19T00:15:41;2.20;;;2.00;;
13218;SDS011;6674;49.152;11.918;2023-09-19T00:18:08;2.27;;;2.07;;
13218;SDS011;6674;49.152;11.918;2023-09-19T00:20:35;2.33;;;1.77;;
13218;SDS011;6674;49.152;11.918;2023-09-19T00:23:03;2.83;;;2.40;;
13218;SDS011;6674;49.152;11.918;2023-09-19T00:25:34;4.03;;;2.20;;
13218;SDS011;6674;49.152;11.918;2023-09-19T00:28:02;2.20;;;2.10;;
13218;SDS011;6674;49.152;11.918;2023-09-19T00:30:29;2.40;;;2.03;;
13218;SDS011;6674;49.152;11.918;2023-09-19T00:32:55;2.50;;;2.13;;
13218;SDS011;6674;49.152;11.918;2023-09-19T00:35:23;3.30;;;2.30;;
13218;SDS011;6674;49.152;11.918;2023-09-19T00:37:50;2.47;;;2.27;;
13218;SDS011;6674;49.152;11.918;2023-09-19T00:40:17;2.63;;;2.20;;
13218;SDS011;6674;49.152;11.918;2023-09-19T00:42:44;2.40;;;2.20;;
13218;SDS011;6674;49.152;11.918;2023-09-19T00:45:11;2.10;;;2.00;;
13218;SDS011;6674;49.152;11.918;2023-09-19T00:47:38;2.60;;;2.40;;
13218;SDS011;6674;49.152;11.918;2023-09-19T00:50:05;2.70;;;2.10;;
13218;SDS011;6674;49.152;11.918;2023-09-19T00:52:33;2.30;;;2.00;;
13218;SDS011;6674;49.152;11.918;2023-09-19T00:55:02;2.40;;;2.20;;
13218;SDS011;6674;49.152;11.918;2023-09-19T00:57:31;2.80;;;2.40;;
13218;SDS011;6674;49.152;11.918;2023-09-19T00:59:58;2.70;;;2.50;;
13218;SDS011;6674;49.152;11.918;2023-09-19T01:02:26;3.87;;;2.40;;
13218;SDS011;6674;49.152;11.918;2023-09-19T01:04:53;3.70;;;2.77;;
13218;SDS011;6674;49.152;11.918;2023-09-19T01:07:20;3.50;;;2.57;;
13218;SDS011;6674;49.152;11.918;2023-09-19T01:09:47;3.17;;;2.83;;
13218;SDS011;6674;49.152;11.918;2023-09-19T01:12:15;3.73;;;2.70;;
13218;SDS011;6674;49.152;11.918;2023-09-19T01:14:47;2.90;;;2.60;;
13218;SDS011;6674;49.152;11.918;2023-09-19T01:17:20;2.93;;;2.57;;
13218;SDS011;6674;49.152;11.918;2023-09-19T01:20:03;3.00;;;2.70;;
13218;SDS011;6674;49.152;11.918;2023-09-19T01:22:35;3.67;;;2.90;;
13218;SDS011;6674;49.152;11.918;2023-09-19T01:25:07;3.30;;;2.73;;
13218;SDS011;6674;49.152;11.918;2023-09-19T01:27:48;3.00;;;2.80;;
13218;SDS011;6674;49.152;11.918;2023-09-19T01:30:21;3.17;;;2.80;;
13218;SDS011;6674;49.152;11.918;2023-09-19T01:32:49;2.80;;;2.60;;
13218;SDS011;6674;49.152;11.918;2023-09-19T01:35:17;2.80;;;2.60;;
13218;SDS011;6674;49.152;11.918;2023-09-19T01:37:43;2.80;;;2.60;;
13218;SDS011;6674;49.152;11.918;2023-09-19T01:40:11;3.10;;;2.80;;
13218;SDS011;6674;49.152;11.918;2023-09-19T01:42:43;2.77;;;2.57;;
13218;SDS011;6674;49.152;11.918;2023-09-19T01:45:11;3.03;;;2.57;;
13218;SDS011;6674;49.152;11.918;2023-09-19T01:47:43;3.40;;;3.10;;
13218;SDS011;6674;49.152;11.918;2023-09-19T01:50:13;3.20;;;2.90;;
13218;SDS011;6674;49.152;11.918;2023-09-19T01:52:45;2.53;;;2.33;;
13218;SDS011;6674;49.152;11.918;2023-09-19T01:55:13;3.27;;;2.97;;
13218;SDS011;6674;49.152;11.918;2023-09-19T01:57:45;3.10;;;2.60;;
13218;SDS011;6674;49.152;11.918;2023-09-19T02:00:15;2.50;;;2.30;;
13218;SDS011;6674;49.152;11.918;2023-09-19T02:02:44;3.47;;;2.70;;
13218;SDS011;6674;49.152;11.918;2023-09-19T02:05:11;2.80;;;2.40;;
13218;SDS011;6674;49.152;11.918;2023-09-19T02:07:38;2.47;;;2.27;;
13218;SDS011;6674;49.152;11.918;2023-09-19T02:10:05;3.50;;;2.67;;
13218;SDS011;6674;49.152;11.918;2023-09-19T02:12:35;3.87;;;2.50;;
13218;SDS011;6674;49.152;11.918;2023-09-19T02:15:02;3.03;;;2.17;;
13218;SDS011;6674;49.152;11.918;2023-09-19T02:17:28;2.67;;;2.47;;
13218;SDS011;6674;49.152;11.918;2023-09-19T02:19:57;2.90;;;2.40;;
13218;SDS011;6674;49.152;11.918;2023-09-19T02:22:26;3.20;;;2.47;;
13218;SDS011;6674;49.152;11.918;2023-09-19T02:24:53;2.20;;;2.10;;
13218;SDS011;6674;49.152;11.918;2023-09-19T02:27:19;2.57;;;2.07;;
13218;SDS011;6674;49.152;11.918;2023-09-19T02:29:45;3.00;;;2.10;;
13218;SDS011;6674;49.152;11.918;2023-09-19T02:32:13;2.43;;;2.20;;
13218;SDS011;6674;49.152;11.918;2023-09-19T02:34:40;2.90;;;1.90;;
13218;SDS011;6674;49.152;11.918;2023-09-19T02:37:08;2.50;;;2.27;;
13218;SDS011;6674;49.152;11.918;2023-09-19T02:39:35;2.93;;;2.50;;
13218;SDS011;6674;49.152;11.918;2023-09-19T02:42:03;2.63;;;1.97;;
13218;SDS011;6674;49.152;11.918;2023-09-19T02:44:29;2.20;;;2.00;;
13218;SDS011;6674;49.152;11.918;2023-09-19T02:46:56;1.80;;;1.70;;
13218;SDS011;6674;49.152;11.918;2023-09-19T02:49:24;2.40;;;2.20;;
13218;SDS011;6674;49.152;11.918;2023-09-19T02:51:50;1.87;;;1.70;;
13218;SDS011;6674;49.152;11.918;2023-09-19T02:54:18;2.13;;;1.70;;
13218;SDS011;6674;49.152;11.918;2023-09-19T02:56:44;2.30;;;2.10;;
13218;SDS011;6674;49.152;11.918;2023-09-19T02:59:12;2.10;;;1.90;;
13218;SDS011;6674;49.152;11.918;2023-09-19T03:01:42;3.10;;;2.37;;
13218;SDS011;6674;49.152;11.918;2023-09-19T03:04:09;2.37;;;2.17;;
13218;SDS011;6674;49.152;11.918;2023-09-19T03:06:38;3.43;;;1.97;;
13218;SDS011;6674;49.152;11.918;2023-09-19T03:09:05;2.40;;;2.20;;
13218;SDS011;6674;49.152;11.918;2023-09-19T03:11:38;2.30;;;1.83;;
13218;SDS011;6674;49.152;11.918;2023-09-19T03:14:05;2.10;;;1.90;;
13218;SDS011;6674;49.152;11.918;2023-09-19T03:16:31;3.10;;;1.87;;
13218;SDS011;6674;49.152;11.918;2023-09-19T03:18:58;2.50;;;1.77;;
13218;SDS011;6674;49.152;11.918;2023-09-19T03:21:25;2.03;;;1.50;;
13218;SDS011;6674;49.152;11.918;2023-09-19T03:23:54;2.20;;;2.00;;
13218;SDS011;6674;49.152;11.918;2023-09-19T03:26:21;2.33;;;2.13;;
13218;SDS011;6674;49.152;11.918;2023-09-19T03:28:48;2.20;;;2.00;;
13218;SDS011;6674;49.152;11.918;2023-09-19T03:31:15;2.97;;;2.27;;
13218;SDS011;6674;49.152;11.918;2023-09-19T03:33:42;2.03;;;1.93;;
13218;SDS011;6674;49.152;11.918;2023-09-19T03:36:09;2.57;;;2.07;;
13218;SDS011;6674;49.152;11.918;2023-09-19T03:38:35;2.07;;;1.90;;
13218;SDS011;6674;49.152;11.918;2023-09-19T03:41:02;2.50;;;1.90;;
13218;SDS011;6674;49.152;11.918;2023-09-19T03:43:29;2.97;;;1.97;;
13218;SDS011;6674;49.152;11.918;2023-09-19T03:46:00;2.00;;;1.90;;
13218;SDS011;6674;49.152;11.918;2023-09-19T03:48:27;2.83;;;2.37;;
13218;SDS011;6674;49.152;11.918;2023-09-19T03:50:54;2.60;;;1.73;;
13218;SDS011;6674;49.152;11.918;2023-09-19T03:53:21;1.90;;;1.80;;
13218;SDS011;6674;49.152;11.918;2023-09-19T03:55:48;2.23;;;1.77;;
13218;SDS011;6674;49.152;11.918;2023-09-19T03:58:15;2.47;;;1.43;;
13218;SDS011;6674;49.152;11.918;2023-09-19T04:00:41;2.83;;;2.00;;
13218;SDS011;6674;49.152;11.918;2023-09-19T04:03:09;2.07;;;1.87;;
13218;SDS011;6674;49.152;11.918;2023-09-19T04:05:45;1.90;;;1.50;;
13218;SDS011;6674;49.152;11.918;2023-09-19T04:08:12;1.87;;;1.70;;
13218;SDS011;6674;49.152;11.918;2023-09-19T04:10:41;1.83;;;1.70;;
13218;SDS011;6674;49.152;11.918;2023-09-19T04:13:08;4.17;;;1.80;;
13218;SDS011;6674;49.152;11.918;2023-09-19T04:15:35;1.73;;;1.60;;
13218;SDS011;6674;49.152;11.918;2023-09-19T04:18:02;1.87;;;1.77;;
13218;SDS011;6674;49.152;11.918;2023-09-19T04:20:30;2.33;;;1.97;;
13218;SDS011;6674;49.152;11.918;2023-09-19T04:22:57;2.83;;;1.87;;
13218;SDS011;6674;49.152;11.918;2023-09-19T04:25:25;2.27;;;1.57;;
13218;SDS011;6674;49.152;11.918;2023-09-19T04:27:53;1.93;;;1.83;;
13218;SDS011;6674;49.152;11.918;2023-09-19T04:30:20;3.47;;;2.13;;
13218;SDS011;6674;49.152;11.918;2023-09-19T04:32:47;2.90;;;1.80;;
13218;SDS011;6674;49.152;11.918;2023-09-19T04:35:15;1.80;;;1.63;;
13218;SDS011;6674;49.152;11.918;2023-09-19T04:37:43;2.30;;;1.67;;
13218;SDS011;6674;49.152;11.918;2023-09-19T04:40:10;1.97;;;1.70;;
13218;SDS011;6674;49.152;11.918;2023-09-19T04:42:39;2.50;;;1.70;;
13218;SDS011;6674;49.152;11.918;2023-09-19T04:45:07;1.40;;;1.30;;
13218;SDS011;6674;49.152;11.918;2023-09-19T04:47:34;3.40;;;2.03;;
13218;SDS011;6674;49.152;11.918;2023-09-19T04:50:01;2.23;;;1.70;;
13218;SDS011;6674;49.152;11.918;2023-09-19T04:52:38;3.23;;;1.73;;
13218;SDS011;6674;49.152;11.918;2023-09-19T04:55:06;2.03;;;1.50;;
13218;SDS011;6674;49.152;11.918;2023-09-19T04:57:34;1.57;;;1.43;;
13218;SDS011;6674;49.152;11.918;2023-09-19T05:00:01;2.70;;;1.70;;
13218;SDS011;6674;49.152;11.918;2023-09-19T05:02:33;2.50;;;1.53;;
13218;SDS011;6674;49.152;11.918;2023-09-19T05:05:01;1.40;;;1.30;;
13218;SDS011;6674;49.152;11.918;2023-09-19T05:07:27;1.90;;;1.70;;
13218;SDS011;6674;49.152;11.918;2023-09-19T05:09:54;2.30;;;1.77;;
13218;SDS011;6674;49.152;11.918;2023-09-19T05:12:22;2.37;;;1.60;;
13218;SDS011;6674;49.152;11.918;2023-09-19T05:14:49;2.50;;;1.60;;
13218;SDS011;6674;49.152;11.918;2023-09-19T05:17:15;1.67;;;1.43;;
13218;SDS011;6674;49.152;11.918;2023-09-19T05:19:42;2.87;;;1.60;;
13218;SDS011;6674;49.152;11.918;2023-09-19T05:22:09;1.63;;;1.37;;
13218;SDS011;6674;49.152;11.918;2023-09-19T05:24:35;2.30;;;1.83;;
13218;SDS011;6674;49.152;11.918;2023-09-19T05:27:02;1.53;;;1.30;;
13218;SDS011;6674;49.152;11.918;2023-09-19T05:29:31;1.63;;;1.40;;
13218;SDS011;6674;49.152;11.918;2023-09-19T05:31:59;1.27;;;1.17;;
13218;SDS011;6674;49.152;11.918;2023-09-19T05:34:26;3.07;;;1.53;;
13218;SDS011;6674;49.152;11.918;2023-09-19T05:36:55;2.07;;;1.87;;
13218;SDS011;6674;49.152;11.918;2023-09-19T05:39:22;1.97;;;1.30;;
13218;SDS011;6674;49.152;11.918;2023-09-19T05:41:49;1.23;;;1.10;;
13218;SDS011;6674;49.152;11.918;2023-09-19T05:44:17;1.40;;;1.30;;
13218;SDS011;6674;49.152;11.918;2023-09-19T05:46:45;1.73;;;1.20;;
13218;SDS011;6674;49.152;11.918;2023-09-19T05:49:14;3.53;;;1.50;;
13218;SDS011;6674;49.152;11.918;2023-09-19T05:51:41;1.87;;;1.40;;
13218;SDS011;6674;49.152;11.918;2023-09-19T05:54:07;1.27;;;1.17;;
13218;SDS011;6674;49.152;11.918;2023-09-19T05:56:34;1.50;;;1.23;;
13218;SDS011;6674;49.152;11.918;2023-09-19T05:59:01;1.53;;;1.43;;
13218;SDS011;6674;49.152;11.918;2023-09-19T06:01:28;2.70;;;1.47;;
13218;SDS011;6674;49.152;11.918;2023-09-19T06:03:57;1.40;;;1.30;;
13218;SDS011;6674;49.152;11.918;2023-09-19T06:06:25;2.20;;;1.43;;
13218;SDS011;6674;49.152;11.918;2023-09-19T06:08:52;2.83;;;1.40;;
13218;SDS011;6674;49.152;11.918;2023-09-19T06:11:18;1.60;;;1.30;;
13218;SDS011;6674;49.152;11.918;2023-09-19T06:13:46;2.53;;;1.60;;
13218;SDS011;6674;49.152;11.918;2023-09-19T06:16:14;3.53;;;1.50;;
13218;SDS011;6674;49.152;11.918;2023-09-19T06:18:41;2.17;;;1.40;;
13218;SDS011;6674;49.152;11.918;2023-09-19T06:21:08;2.73;;;1.47;;
13218;SDS011;6674;49.152;11.918;2023-09-19T06:23:35;1.87;;;1.40;;
13218;SDS011;6674;49.152;11.918;2023-09-19T06:26:01;1.77;;;1.53;;
13218;SDS011;6674;49.152;11.918;2023-09-19T06:28:28;3.30;;;1.40;;
13218;SDS011;6674;49.152;11.918;2023-09-19T06:30:55;1.40;;;1.30;;
13218;SDS011;6674;49.152;11.918;2023-09-19T06:33:22;1.27;;;1.00;;
13218;SDS011;6674;49.152;11.918;2023-09-19T06:35:48;2.07;;;1.50;;
13218;SDS011;6674;49.152;11.918;2023-09-19T06:38:19;1.70;;;1.13;;
13218;SDS011;6674;49.152;11.918;2023-09-19T06:40:45;1.20;;;1.10;;
13218;SDS011;6674;49.152;11.918;2023-09-19T06:43:12;1.40;;;1.30;;
13218;SDS011;6674;49.152;11.918;2023-09-19T06:45:40;1.50;;;1.17;;
13218;SDS011;6674;49.152;11.918;2023-09-19T06:48:07;1.80;;;1.30;;
13218;SDS011;6674;49.152;11.918;2023-09-19T06:50:35;2.30;;;1.50;;
13218;SDS011;6674;49.152;11.918;2023-09-19T06:53:01;1.23;;;1.13;;
13218;SDS011;6674;49.152;11.918;2023-09-19T06:55:29;1.20;;;1.00;;
13218;SDS011;6674;49.152;11.918;2023-09-19T06:57:56;2.17;;;1.40;;
13218;SDS011;6674;49.152;11.918;2023-09-19T07:00:23;1.53;;;1.10;;
13218;SDS011;6674;49.152;11.918;2023-09-19T07:02:57;2.10;;;1.10;;
13218;SDS011;6674;49.152;11.918;2023-09-19T07:05:25;1.50;;;1.40;;
13218;SDS011;6674;49.152;11.918;2023-09-19T07:07:52;1.20;;;1.10;;
13218;SDS011;6674;49.152;11.918;2023-09-19T07:10:19;1.40;;;1.30;;
13218;SDS011;6674;49.152;11.918;2023-09-19T07:12:54;2.00;;;1.50;;
13218;SDS011;6674;49.152;11.918;2023-09-19T07:15:20;5.07;;;1.27;;
13218;SDS011;6674;49.152;11.918;2023-09-19T07:17:49;1.80;;;1.30;;
13218;SDS011;6674;49.152;11.918;2023-09-19T07:20:16;1.77;;;1.10;;
13218;SDS011;6674;49.152;11.918;2023-09-19T07:22:42;1.67;;;1.30;;
13218;SDS011;6674;49.152;11.918;2023-09-19T07:25:09;1.60;;;1.00;;
13218;SDS011;6674;49.152;11.918;2023-09-19T07:27:35;2.33;;;1.20;;
13218;SDS011;6674;49.152;11.918;2023-09-19T07:30:03;1.10;;;1.00;;
13218;SDS011;6674;49.152;11.918;2023-09-19T07:32:30;1.40;;;1.30;;
13218;SDS011;6674;49.152;11.918;2023-09-19T07:34:57;2.10;;;1.33;;
13218;SDS011;6674;49.152;11.918;2023-09-19T07:37:23;1.40;;;1.30;;
13218;SDS011;6674;49.152;11.918;2023-09-19T07:39:50;1.33;;;1.10;;
13218;SDS011;6674;49.152;11.918;2023-09-19T07:42:17;1.83;;;1.20;;
13218;SDS011;6674;49.152;11.918;2023-09-19T07:44:44;2.57;;;1.47;;
13218;SDS011;6674;49.152;11.918;2023-09-19T07:47:13;1.23;;;1.13;;
13218;SDS011;6674;49.152;11.918;2023-09-19T07:49:40;1.47;;;1.37;;
13218;SDS011;6674;49.152;11.918;2023-09-19T07:52:07;1.93;;;1.37;;
13218;SDS011;6674;49.152;11.918;2023-09-19T07:54:34;1.50;;;1.37;;
13218;SDS011;6674;49.152;11.918;2023-09-19T07:57:01;2.00;;;1.20;;
13218;SDS011;6674;49.152;11.918;2023-09-19T07:59:27;1.10;;;1.00;;
13218;SDS011;6674;49.152;11.918;2023-09-19T08:01:55;2.57;;;1.40;;
13218;SDS011;6674;49.152;11.918;2023-09-19T08:04:24;2.60;;;1.50;;
13218;SDS011;6674;49.152;11.918;2023-09-19T08:06:51;2.00;;;1.40;;
13218;SDS011;6674;49.152;11.918;2023-09-19T08:09:18;1.50;;;1.30;;
13218;SDS011;6674;49.152;11.918;2023-09-19T08:11:47;1.43;;;1.33;;
13218;SDS011;6674;49.152;11.918;2023-09-19T08:14:15;1.50;;;1.30;;
13218;SDS011;6674;49.152;11.918;2023-09-19T08:16:42;1.33;;;1.17;;
13218;SDS011;6674;49.152;11.918;2023-09-19T08:19:09;1.43;;;1.33;;
13218;SDS011;6674;49.152;11.918;2023-09-19T08:21:37;4.17;;;1.40;;
13218;SDS011;6674;49.152;11.918;2023-09-19T08:24:04;1.50;;;0.90;;
13218;SDS011;6674;49.152;11.918;2023-09-19T08:26:30;1.33;;;1.23;;
13218;SDS011;6674;49.152;11.918;2023-09-19T08:28:57;1.83;;;1.63;;
13218;SDS011;6674;49.152;11.918;2023-09-19T08:31:24;1.50;;;1.40;;
13218;SDS011;6674;49.152;11.918;2023-09-19T08:33:51;1.53;;;1.43;;
13218;SDS011;6674;49.152;11.918;2023-09-19T08:36:18;1.30;;;1.20;;
13218;SDS011;6674;49.152;11.918;2023-09-19T08:38:46;1.93;;;1.30;;
13218;SDS011;6674;49.152;11.918;2023-09-19T08:41:14;2.50;;;1.30;;
13218;SDS011;6674;49.152;11.918;2023-09-19T08:43:43;2.47;;;1.07;;
13218;SDS011;6674;49.152;11.918;2023-09-19T08:46:11;1.70;;;1.20;;
13218;SDS011;6674;49.152;11.918;2023-09-19T08:48:39;1.97;;;1.10;;
13218;SDS011;6674;49.152;11.918;2023-09-19T08:51:10;1.63;;;1.10;;
13218;SDS011;6674;49.152;11.918;2023-09-19T08:53:41;1.20;;;1.10;;
13218;SDS011;6674;49.152;11.918;2023-09-19T08:56:10;1.53;;;1.43;;
13218;SDS011;6674;49.152;11.918;2023-09-19T08:58:39;2.30;;;1.60;;
13218;SDS011;6674;49.152;11.918;2023-09-19T09:01:07;1.73;;;1.40;;
13218;SDS011;6674;49.152;11.918;2023-09-19T09:03:35;2.20;;;1.40;;
13218;SDS011;6674;49.152;11.918;2023-09-19T09:06:03;2.40;;;1.40;;
13218;SDS011;6674;49.152;11.918;2023-09-19T09:08:30;1.87;;;1.30;;
13218;SDS011;6674;49.152;11.918;2023-09-19T09:10:57;1.80;;;1.20;;
13218;SDS011;6674;49.152;11.918;2023-09-19T09:13:26;1.30;;;1.20;;
13218;SDS011;6674;49.152;11.918;2023-09-19T09:15:52;1.67;;;1.47;;
13218;SDS011;6674;49.152;11.918;2023-09-19T09:18:19;1.30;;;1.20;;
13218;SDS011;6674;49.152;11.918;2023-09-19T09:20:47;1.10;;;1.00;;
13218;SDS011;6674;49.152;11.918;2023-09-19T09:23:13;2.90;;;1.10;;
13218;SDS011;6674;49.152;11.918;2023-09-19T09:25:49;1.00;;;0.90;;
13218;SDS011;6674;49.152;11.918;2023-09-19T09:28:20;1.27;;;1.17;;
13218;SDS011;6674;49.152;11.918;2023-09-19T09:30:48;1.23;;;1.13;;
13218;SDS011;6674;49.152;11.918;2023-09-19T09:33:15;1.90;;;1.10;;
13218;SDS011;6674;49.152;11.918;2023-09-19T09:35:48;1.53;;;1.40;;
13218;SDS011;6674;49.152;11.918;2023-09-19T09:38:17;2.07;;;1.20;;
13218;SDS011;6674;49.152;11.918;2023-09-19T09:40:47;1.17;;;1.03;;
13218;SDS011;6674;49.152;11.918;2023-09-19T09:43:26;1.87;;;1.10;;
13218;SDS011;6674;49.152;11.918;2023-09-19T09:46:11;1.27;;;1.17;;
13218;SDS011;6674;49.152;11.918;2023-09-19T09:48:56;1.50;;;1.27;;
13218;SDS011;6674;49.152;11.918;2023-09-19T09:52:02;1.40;;;1.30;;
13218;SDS011;6674;49.152;11.918;2023-09-19T09:54:32;2.33;;;1.53;;
13218;SDS011;6674;49.152;11.918;2023-09-19T09:57:03;1.03;;;0.97;;
13218;SDS011;6674;49.152;11.918;2023-09-19T09:59:51;1.87;;;1.47;;
13218;SDS011;6674;49.152;11.918;2023-09-19T10:02:19;1.77;;;1.20;;
13218;SDS011;6674;49.152;11.918;2023-09-19T10:04:50;1.87;;;1.27;;
13218;SDS011;6674;49.152;11.918;2023-09-19T10:07:40;1.40;;;1.30;;
13218;SDS011;6674;49.152;11.918;2023-09-19T10:10:12;2.20;;;1.50;;
13218;SDS011;6674;49.152;11.918;2023-09-19T10:12:42;2.07;;;1.20;;
13218;SDS011;6674;49.152;11.918;2023-09-19T10:15:11;1.30;;;1.20;;
13218;SDS011;6674;49.152;11.918;2023-09-19T10:17:42;1.23;;;1.17;;
13218;SDS011;6674;49.152;11.918;2023-09-19T10:20:11;1.47;;;1.30;;
13218;SDS011;6674;49.152;11.918;2023-09-19T10:22:49;1.67;;;1.33;;
13218;SDS011;6674;49.152;11.918;2023-09-19T10:25:23;2.80;;;1.70;;
13218;SDS011;6674;49.152;11.918;2023-09-19T10:27:52;1.93;;;1.30;;
13218;SDS011;6674;49.152;11.918;2023-09-19T10:30:20;2.30;;;1.47;;
13218;SDS011;6674;49.152;11.918;2023-09-19T10:32:48;2.67;;;1.20;;
13218;SDS011;6674;49.152;11.918;2023-09-19T10:35:19;1.20;;;1.20;;
13218;SDS011;6674;49.152;11.918;2023-09-19T10:37:46;2.30;;;1.30;;
13218;SDS011;6674;49.152;11.918;2023-09-19T10:40:16;1.53;;;1.33;;
13218;SDS011;6674;49.152;11.918;2023-09-19T10:42:43;1.60;;;1.50;;
13218;SDS011;6674;49.152;11.918;2023-09-19T10:45:11;1.20;;;1.10;;
13218;SDS011;6674;49.152;11.918;2023-09-19T10:47:40;1.50;;;1.40;;
13218;SDS011;6674;49.152;11.918;2023-09-19T10:50:08;2.13;;;1.40;;
13218;SDS011;6674;49.152;11.918;2023-09-19T10:52:38;2.03;;;1.77;;
13218;SDS011;6674;49.152;11.918;2023-09-19T10:55:06;1.40;;;1.30;;
13218;SDS011;6674;49.152;11.918;2023-09-19T10:57:35;2.40;;;1.50;;
13218;SDS011;6674;49.152;11.918;2023-09-19T11:00:03;1.77;;;1.63;;
13218;SDS011;6674;49.152;11.918;2023-09-19T11:05:30;2.00;;;1.43;;
13218;SDS011;6674;49.152;11.918;2023-09-19T11:07:56;1.70;;;1.60;;
13218;SDS011;6674;49.152;11.918;2023-09-19T11:18:52;2.13;;;1.87;;
13218;SDS011;6674;49.152;11.918;2023-09-19T11:27:08;1.60;;;1.50;;
13218;SDS011;6674;49.152;11.918;2023-09-19T11:29:35;1.87;;;1.50;;
13218;SDS011;6674;49.152;11.918;2023-09-19T11:32:02;1.60;;;1.50;;
13218;SDS011;6674;49.152;11.918;2023-09-19T11:34:41;1.63;;;1.53;;
13218;SDS011;6674;49.152;11.918;2023-09-19T11:40:06;1.60;;;1.50;;
13218;SDS011;6674;49.152;11.918;2023-09-19T11:42:41;1.50;;;1.40;;
13218;SDS011;6674;49.152;11.918;2023-09-19T11:45:07;1.60;;;1.50;;
13218;SDS011;6674;49.152;11.918;2023-09-19T11:47:34;1.57;;;1.47;;
13218;SDS011;6674;49.152;11.918;2023-09-19T11:50:02;1.83;;;1.40;;
13218;SDS011;6674;49.152;11.918;2023-09-19T11:52:30;1.57;;;1.47;;
13218;SDS011;6674;49.152;11.918;2023-09-19T11:55:00;2.00;;;1.53;;
13218;SDS011;6674;49.152;11.918;2023-09-19T11:57:27;1.80;;;1.70;;
13218;SDS011;6674;49.152;11.918;2023-09-19T11:59:55;1.60;;;1.50;;
13218;SDS011;6674;49.152;11.918;2023-09-19T12:02:27;1.77;;;1.50;;
13218;SDS011;6674;49.152;11.918;2023-09-19T12:04:59;1.77;;;1.60;;
13218;SDS011;6674;49.152;11.918;2023-09-19T12:07:27;2.00;;;1.70;;
13218;SDS011;6674;49.152;11.918;2023-09-19T12:10:02;1.80;;;1.70;;
13218;SDS011;6674;49.152;11.918;2023-09-19T12:12:29;2.00;;;1.50;;
13218;SDS011;6674;49.152;11.918;2023-09-19T12:14:57;1.50;;;1.40;;
13218;SDS011;6674;49.152;11.918;2023-09-19T12:17:34;1.60;;;1.30;;
13218;SDS011;6674;49.152;11.918;2023-09-19T12:20:01;1.33;;;1.23;;
13218;SDS011;6674;49.152;11.918;2023-09-19T12:22:40;1.87;;;1.27;;
13218;SDS011;6674;49.152;11.918;2023-09-19T12:25:09;1.60;;;1.20;;
13218;SDS011;6674;49.152;11.918;2023-09-19T12:27:41;2.17;;;1.23;;
13218;SDS011;6674;49.152;11.918;2023-09-19T12:30:09;1.30;;;1.20;;
13218;SDS011;6674;49.152;11.918;2023-09-19T12:32:39;2.03;;;1.70;;
13218;SDS011;6674;49.152;11.918;2023-09-19T12:35:06;1.43;;;1.03;;
13218;SDS011;6674;49.152;11.918;2023-09-19T12:37:36;1.07;;;1.00;;
13218;SDS011;6674;49.152;11.918;2023-09-19T12:40:05;1.10;;;1.10;;
13218;SDS011;6674;49.152;11.918;2023-09-19T12:42:41;1.07;;;0.97;;
13218;SDS011;6674;49.152;11.918;2023-09-19T12:45:08;1.03;;;1.00;;
13218;SDS011;6674;49.152;11.918;2023-09-19T12:47:34;1.20;;;1.10;;
13218;SDS011;6674;49.152;11.918;2023-09-19T12:50:07;2.87;;;1.10;;
13218;SDS011;6674;49.152;11.918;2023-09-19T12:52:38;1.13;;;1.00;;
13218;SDS011;6674;49.152;11.918;2023-09-19T12:55:06;1.83;;;1.53;;
13218;SDS011;6674;49.152;11.918;2023-09-19T12:57:34;1.67;;;1.03;;
13218;SDS011;6674;49.152;11.918;2023-09-19T13:00:01;1.43;;;1.20;;
13218;SDS011;6674;49.152;11.918;2023-09-19T13:02:28;1.33;;;1.00;;
13218;SDS011;6674;49.152;11.918;2023-09-19T13:04:54;1.20;;;1.10;;
13218;SDS011;6674;49.152;11.918;2023-09-19T13:07:40;1.17;;;1.07;;
13218;SDS011;6674;49.152;11.918;2023-09-19T13:10:10;1.40;;;1.27;;
13218;SDS011;6674;49.152;11.918;2023-09-19T13:12:37;1.40;;;1.30;;
13218;SDS011;6674;49.152;11.918;2023-09-19T13:15:08;2.50;;;1.50;;
13218;SDS011;6674;49.152;11.918;2023-09-19T13:17:44;1.23;;;1.13;;
13218;SDS011;6674;49.152;11.918;2023-09-19T13:20:20;1.50;;;1.00;;
13218;SDS011;6674;49.152;11.918;2023-09-19T13:22:49;2.70;;;1.40;;
13218;SDS011;6674;49.152;11.918;2023-09-19T13:25:20;1.63;;;1.10;;
13218;SDS011;6674;49.152;11.918;2023-09-19T13:27:48;0.83;;;0.83;;
13218;SDS011;6674;49.152;11.918;2023-09-19T13:30:16;1.60;;;1.17;;
13218;SDS011;6674;49.152;11.918;2023-09-19T13:32:43;1.60;;;1.13;;
13218;SDS011;6674;49.152;11.918;2023-09-19T13:35:10;1.73;;;1.50;;
13218;SDS011;6674;49.152;11.918;2023-09-19T13:37:38;1.47;;;0.97;;
13218;SDS011;6674;49.152;11.918;2023-09-19T13:40:06;1.10;;;1.00;;
13218;SDS011;6674;49.152;11.918;2023-09-19T13:42:34;1.47;;;1.20;;
13218;SDS011;6674;49.152;11.918;2023-09-19T13:45:01;1.47;;;1.13;;
13218;SDS011;6674;49.152;11.918;2023-09-19T13:47:29;0.90;;;0.90;;
13218;SDS011;6674;49.152;11.918;2023-09-19T13:49:56;2.03;;;1.10;;
13218;SDS011;6674;49.152;11.918;2023-09-19T13:52:22;1.43;;;1.20;;
13218;SDS011;6674;49.152;11.918;2023-09-19T13:54:49;1.20;;;1.10;;
13218;SDS011;6674;49.152;11.918;2023-09-19T13:57:16;0.80;;;0.80;;
13218;SDS011;6674;49.152;11.918;2023-09-19T13:59:44;1.53;;;1.30;;
13218;SDS011;6674;49.152;11.918;2023-09-19T14:02:10;1.57;;;1.47;;
13218;SDS011;6674;49.152;11.918;2023-09-19T14:04:39;1.30;;;1.10;;
13218;SDS011;6674;49.152;11.918;2023-09-19T14:07:05;0.80;;;0.80;;
13218;SDS011;6674;49.152;11.918;2023-09-19T14:09:32;1.07;;;0.93;;
13218;SDS011;6674;49.152;11.918;2023-09-19T14:11:58;2.97;;;1.10;;
13218;SDS011;6674;49.152;11.918;2023-09-19T14:14:25;1.93;;;1.00;;
13218;SDS011;6674;49.152;11.918;2023-09-19T14:16:52;1.20;;;1.10;;
13218;SDS011;6674;49.152;11.918;2023-09-19T14:19:20;1.23;;;1.13;;
13218;SDS011;6674;49.152;11.918;2023-09-19T14:21:46;1.10;;;1.00;;
13218;SDS011;6674;49.152;11.918;2023-09-19T14:24:16;1.33;;;0.80;;
13218;SDS011;6674;49.152;11.918;2023-09-19T14:26:42;1.60;;;0.90;;
13218;SDS011;6674;49.152;11.918;2023-09-19T14:29:09;1.47;;;1.27;;
13218;SDS011;6674;49.152;11.918;2023-09-19T14:31:37;0.93;;;0.90;;
13218;SDS011;6674;49.152;11.918;2023-09-19T14:34:06;1.73;;;1.13;;
13218;SDS011;6674;49.152;11.918;2023-09-19T14:36:35;1.23;;;0.90;;
13218;SDS011;6674;49.152;11.918;2023-09-19T14:39:01;2.40;;;1.30;;
13218;SDS011;6674;49.152;11.918;2023-09-19T14:41:28;1.20;;;1.00;;
13218;SDS011;6674;49.152;11.918;2023-09-19T14:43:56;1.43;;;1.10;;
13218;SDS011;6674;49.152;11.918;2023-09-19T14:46:22;1.73;;;1.20;;
13218;SDS011;6674;49.152;11.918;2023-09-19T14:48:50;2.27;;;1.10;;
13218;SDS011;6674;49.152;11.918;2023-09-19T14:51:18;1.53;;;1.10;;
13218;SDS011;6674;49.152;11.918;2023-09-19T14:53:45;1.27;;;1.17;;
13218;SDS011;6674;49.152;11.918;2023-09-19T14:56:12;1.37;;;0.80;;
13218;SDS011;6674;49.152;11.918;2023-09-19T14:58:40;1.30;;;1.20;;
13218;SDS011;6674;49.152;11.918;2023-09-19T15:01:07;1.10;;;1.00;;
13218;SDS011;6674;49.152;11.918;2023-09-19T15:03:35;1.20;;;0.90;;
13218;SDS011;6674;49.152;11.918;2023-09-19T15:06:02;1.10;;;1.00;;
13218;SDS011;6674;49.152;11.918;2023-09-19T15:08:32;1.70;;;1.10;;
13218;SDS011;6674;49.152;11.918;2023-09-19T15:11:01;1.47;;;1.00;;
13218;SDS011;6674;49.152;11.918;2023-09-19T15:13:29;2.13;;;1.07;;
13218;SDS011;6674;49.152;11.918;2023-09-19T15:15:58;2.50;;;1.07;;